Time;durP1;ratioP1;P1;durP2;ratioP2;P2;SDS_P1;SDS_P2;PMS_P1;PMS_P2;Temp;Humidity;BMP_temperature;BMP_pressure;BME280_temperature;BME280_humidity;BME280_pressure;Samples;Min_cycle;Max_cycle;Signal;HPM_P1;HPM_P2
2022/01/13 05:02:38;;;;;;;31.73;19.97;;;0.90;99.90;;;;;;4991605;28;20582;-75
2022/01/13 05:05:06;;;;;;;37.40;22.00;;;0.90;99.90;;;;;;4994231;28;20542;-75
2022/01/13 05:07:33;;;;;;;34.50;19.20;;;0.90;99.90;;;;;;4994055;28;20454;-75
2022/01/13 05:10:00;;;;;;;40.20;23.60;;;1.00;99.90;;;;;;4993715;28;20495;-74
2022/01/13 05:12:32;;;;;;;35.23;23.50;;;1.00;99.90;;;;;;4993757;28;20550;-75
2022/01/13 05:15:02;;;;;;;28.40;18.97;;;1.00;99.90;;;;;;4994526;28;20455;-75
2022/01/13 05:18:01;;;;;;;28.30;18.50;;;1.00;99.90;;;;;;4994075;28;20463;-75
2022/01/13 05:20:38;;;;;;;30.60;18.97;;;1.00;99.90;;;;;;4993175;28;20817;-75
2022/01/13 05:23:08;;;;;;;38.03;19.17;;;1.00;99.90;;;;;;4992821;28;20466;-75
2022/01/13 05:25:36;;;;;;;32.47;20.90;;;0.90;99.90;;;;;;4992086;28;20545;-75
2022/01/13 05:28:03;;;;;;;28.30;17.57;;;0.90;99.90;;;;;;4993501;28;20459;-75
2022/01/13 05:30:30;;;;;;;33.80;20.80;;;0.80;99.90;;;;;;4993187;28;20590;-75
2022/01/13 05:32:57;;;;;;;34.43;22.37;;;0.80;99.90;;;;;;4992467;28;20538;-76
2022/01/13 05:35:25;;;;;;;34.50;20.83;;;0.90;99.90;;;;;;4993400;28;20465;-76
2022/01/13 05:37:54;;;;;;;36.80;22.63;;;0.90;99.90;;;;;;4993394;28;20870;-75
2022/01/13 05:40:21;;;;;;;35.53;22.50;;;0.90;99.90;;;;;;4993252;28;20546;-76
2022/01/13 05:42:49;;;;;;;41.73;22.13;;;0.90;99.90;;;;;;4993396;28;20485;-75
2022/01/13 05:45:17;;;;;;;33.37;20.20;;;0.90;99.90;;;;;;4993183;28;20973;-75
2022/01/13 05:47:45;;;;;;;37.97;20.57;;;0.90;99.90;;;;;;4993044;28;20490;-75
2022/01/13 05:50:13;;;;;;;32.37;20.33;;;0.80;99.90;;;;;;4992938;28;20497;-76
2022/01/13 05:52:40;;;;;;;31.30;20.03;;;0.80;99.90;;;;;;4993205;28;20542;-75
2022/01/13 05:55:10;;;;;;;37.77;22.00;;;0.80;99.90;;;;;;4992952;28;20459;-76
2022/01/13 05:57:37;;;;;;;32.83;19.10;;;0.80;99.90;;;;;;4993026;28;20530;-76
2022/01/13 06:00:06;;;;;;;29.80;18.43;;;0.80;99.90;;;;;;4992500;28;20487;-76
2022/01/13 06:02:33;;;;;;;33.90;20.20;;;0.70;99.90;;;;;;4992676;28;20566;-75
2022/01/13 06:04:59;;;;;;;33.40;20.43;;;0.70;99.90;;;;;;4992697;28;20496;-75
2022/01/13 06:07:26;;;;;;;36.17;19.77;;;0.70;99.90;;;;;;4993650;28;20506;-75
2022/01/13 06:09:53;;;;;;;41.87;23.40;;;0.80;99.90;;;;;;4998002;28;20518;-75
2022/01/13 06:12:32;;;;;;;31.40;22.03;;;0.70;99.90;;;;;;4992741;28;20585;-76
2022/01/13 06:14:59;;;;;;;31.20;20.13;;;0.80;99.90;;;;;;4992813;28;20534;-75
2022/01/13 06:17:26;;;;;;;30.43;19.13;;;0.70;99.90;;;;;;4991631;28;20487;-75
2022/01/13 06:19:54;;;;;;;28.67;17.77;;;0.70;99.90;;;;;;4992382;28;20477;-75
2022/01/13 06:22:21;;;;;;;33.43;19.47;;;0.70;99.90;;;;;;4992512;28;20482;-75
2022/01/13 06:24:48;;;;;;;30.87;19.37;;;0.80;99.90;;;;;;4992352;28;20554;-75
2022/01/13 06:27:15;;;;;;;33.23;18.83;;;0.70;99.90;;;;;;4992127;28;20541;-75
2022/01/13 06:29:43;;;;;;;31.17;18.40;;;0.70;99.90;;;;;;4992214;28;20478;-75
2022/01/13 06:32:10;;;;;;;27.47;18.17;;;0.70;99.90;;;;;;4992335;28;20995;-75
2022/01/13 06:34:37;;;;;;;31.33;17.80;;;0.70;99.90;;;;;;4992413;28;20904;-74
2022/01/13 06:37:04;;;;;;;29.33;19.17;;;0.70;99.90;;;;;;4992129;28;20545;-74
2022/01/13 06:39:31;;;;;;;31.73;18.73;;;0.70;99.90;;;;;;4992083;28;20534;-74
2022/01/13 06:41:58;;;;;;;32.13;18.50;;;0.70;99.90;;;;;;4992024;28;20546;-75
2022/01/13 06:44:24;;;;;;;32.43;18.60;;;0.70;99.90;;;;;;4997324;28;20921;-74
2022/01/13 06:46:53;;;;;;;26.70;15.70;;;0.60;99.90;;;;;;4999180;28;20492;-75
2022/01/13 06:49:20;;;;;;;31.20;18.30;;;0.60;99.90;;;;;;4998566;28;20500;-75
2022/01/13 06:51:47;;;;;;;31.57;18.63;;;0.50;99.90;;;;;;4998480;28;20601;-75
2022/01/13 06:54:14;;;;;;;27.37;15.93;;;0.50;99.90;;;;;;4998769;28;20549;-75
2022/01/13 06:56:41;;;;;;;31.60;17.83;;;0.50;99.90;;;;;;4998696;28;20557;-74
2022/01/13 06:59:11;;;;;;;27.00;17.40;;;0.60;99.90;;;;;;4998769;28;20530;-75
2022/01/13 07:01:38;;;;;;;28.53;17.63;;;0.50;99.90;;;;;;4998933;28;20518;-74
2022/01/13 07:04:08;;;;;;;29.70;18.13;;;0.50;99.90;;;;;;4998660;28;20509;-74
2022/01/13 07:06:36;;;;;;;30.83;17.53;;;0.50;99.90;;;;;;4998747;28;20517;-74
2022/01/13 07:09:05;;;;;;;34.00;18.20;;;0.50;99.90;;;;;;4998250;28;20542;-75
2022/01/13 07:11:33;;;;;;;32.47;18.30;;;0.50;99.90;;;;;;4998511;28;20534;-75
2022/01/13 07:14:00;;;;;;;33.10;19.67;;;0.50;99.90;;;;;;4998729;28;20481;-75
2022/01/13 07:16:27;;;;;;;34.47;18.77;;;0.50;99.90;;;;;;4998701;28;20534;-75
2022/01/13 07:18:55;;;;;;;31.53;17.60;;;0.50;99.90;;;;;;4998362;28;20550;-75
2022/01/13 07:21:26;;;;;;;29.20;16.83;;;0.40;99.90;;;;;;4998174;28;20849;-75
2022/01/13 07:23:53;;;;;;;30.73;17.53;;;0.40;99.90;;;;;;4998568;28;20961;-75
2022/01/13 07:26:20;;;;;;;30.73;19.80;;;0.40;99.90;;;;;;4998531;28;20933;-75
2022/01/13 07:28:47;;;;;;;35.33;19.37;;;0.50;99.90;;;;;;4998301;28;20883;-74
2022/01/13 07:31:19;;;;;;;33.77;20.00;;;0.50;99.90;;;;;;4987000;28;20871;-75
2022/01/13 07:33:46;;;;;;;36.20;19.93;;;0.50;99.90;;;;;;4990853;28;20451;-76
2022/01/13 07:36:14;;;;;;;35.30;19.20;;;0.50;99.90;;;;;;4998324;28;20551;-75
2022/01/13 07:38:42;;;;;;;38.93;20.27;;;0.50;99.90;;;;;;4998523;28;20455;-75
2022/01/13 07:41:09;;;;;;;35.93;20.17;;;0.60;99.90;;;;;;4998215;28;20554;-75
2022/01/13 07:43:36;;;;;;;35.40;18.87;;;0.60;99.90;;;;;;4998532;28;20450;-75
2022/01/13 07:46:03;;;;;;;33.20;18.80;;;0.60;99.90;;;;;;4998405;28;20465;-75
2022/01/13 07:48:30;;;;;;;29.73;17.57;;;0.60;99.90;;;;;;4998182;28;20473;-75
2022/01/13 07:50:57;;;;;;;30.80;17.80;;;0.70;99.90;;;;;;4998029;28;20534;-75
2022/01/13 07:53:24;;;;;;;30.87;18.33;;;0.70;99.90;;;;;;4998263;28;20966;-75
2022/01/13 07:55:52;;;;;;;29.87;18.90;;;0.70;99.90;;;;;;4994896;28;20487;-76
2022/01/13 07:58:19;;;;;;;32.10;18.03;;;0.70;99.90;;;;;;4995305;28;20537;-75
2022/01/13 08:00:46;;;;;;;34.00;19.00;;;0.70;99.90;;;;;;4994825;28;20518;-76
2022/01/13 08:03:13;;;;;;;30.33;18.87;;;0.70;99.90;;;;;;4995009;28;20542;-75
2022/01/13 08:05:41;;;;;;;35.07;18.70;;;0.70;99.90;;;;;;4995048;28;20541;-75
2022/01/13 08:08:09;;;;;;;29.53;17.50;;;0.70;99.90;;;;;;4995053;28;20526;-75
2022/01/13 08:10:36;;;;;;;35.57;18.93;;;0.70;99.90;;;;;;4994598;28;20482;-74
2022/01/13 08:13:04;;;;;;;28.57;18.40;;;0.60;99.90;;;;;;4995168;28;20537;-75
2022/01/13 08:15:34;;;;;;;36.10;19.00;;;0.60;99.90;;;;;;4994978;28;20561;-75
2022/01/13 08:20:45;;;;;;;32.03;18.63;;;0.60;99.90;;;;;;4994777;28;20458;-73
2022/01/13 08:23:12;;;;;;;34.13;18.87;;;0.60;99.90;;;;;;4994881;28;20466;-63
2022/01/13 08:25:40;;;;;;;30.80;18.43;;;0.70;99.90;;;;;;4994815;28;20542;-63
2022/01/13 08:28:08;;;;;;;32.10;20.17;;;0.70;99.90;;;;;;4994615;28;20586;-63
2022/01/13 08:30:35;;;;;;;35.53;19.07;;;0.80;99.90;;;;;;4994653;28;20574;-63
2022/01/13 08:33:02;;;;;;;29.43;17.53;;;0.80;99.90;;;;;;4994747;28;20495;-63
2022/01/13 08:35:29;;;;;;;30.10;17.73;;;0.80;99.90;;;;;;4994535;28;20490;-63
2022/01/13 08:38:01;;;;;;;32.73;18.00;;;0.90;99.90;;;;;;4994423;28;20959;-63
2022/01/13 08:40:28;;;;;;;33.17;18.77;;;0.90;99.90;;;;;;4994121;28;20513;-63
2022/01/13 08:42:55;;;;;;;30.23;19.40;;;0.90;99.90;;;;;;4994053;28;20532;-74
2022/01/13 08:45:23;;;;;;;34.60;18.30;;;1.10;99.90;;;;;;4994530;28;20658;-74
2022/01/13 08:47:50;;;;;;;30.10;18.00;;;1.10;99.90;;;;;;4994627;28;20546;-75
2022/01/13 08:50:17;;;;;;;29.90;18.43;;;1.20;99.90;;;;;;4994068;28;20541;-75
2022/01/13 08:52:45;;;;;;;30.10;18.20;;;1.20;99.90;;;;;;4994212;28;20527;-74
2022/01/13 08:55:12;;;;;;;29.70;18.40;;;1.20;99.90;;;;;;4993984;28;20943;-75
2022/01/13 08:57:39;;;;;;;30.63;18.13;;;1.20;99.90;;;;;;4994443;28;20539;-75
2022/01/13 09:00:08;;;;;;;32.27;18.67;;;1.20;99.90;;;;;;4993938;28;20530;-74
2022/01/13 09:02:37;;;;;;;32.97;18.57;;;1.20;99.90;;;;;;4993893;28;20569;-74
2022/01/13 09:05:05;;;;;;;33.33;17.43;;;1.20;99.90;;;;;;4993994;28;20451;-74
2022/01/13 09:07:32;;;;;;;30.20;17.00;;;1.20;99.90;;;;;;4993777;28;20856;-74
2022/01/13 09:09:59;;;;;;;31.13;17.30;;;1.10;99.90;;;;;;4993930;28;20507;-74
2022/01/13 09:12:26;;;;;;;25.40;17.00;;;1.10;99.90;;;;;;4993967;28;20581;-74
2022/01/13 09:14:59;;;;;;;31.63;17.97;;;1.10;99.90;;;;;;4993991;28;20463;-74
2022/01/13 09:17:26;;;;;;;35.87;18.40;;;1.10;99.90;;;;;;4993821;28;20542;-74
2022/01/13 09:19:54;;;;;;;32.60;19.83;;;1.20;99.90;;;;;;4993582;28;20470;-75
2022/01/13 09:22:21;;;;;;;29.67;17.87;;;1.30;99.90;;;;;;4993725;28;21028;-74
2022/01/13 09:24:48;;;;;;;31.33;18.67;;;1.30;99.90;;;;;;4993618;28;20539;-74
2022/01/13 09:27:15;;;;;;;35.27;19.17;;;1.30;99.90;;;;;;4993806;28;20499;-74
2022/01/13 09:29:42;;;;;;;34.53;19.03;;;1.40;99.90;;;;;;4993545;28;20538;-74
2022/01/13 09:32:09;;;;;;;30.50;17.30;;;1.50;99.90;;;;;;4993226;28;20931;-75
2022/01/13 09:34:37;;;;;;;27.10;16.50;;;1.50;99.90;;;;;;4993279;28;20486;-74
2022/01/13 09:37:06;;;;;;;30.77;18.33;;;1.60;99.90;;;;;;4993341;28;20467;-74
2022/01/13 09:39:33;;;;;;;33.47;19.80;;;1.60;99.90;;;;;;4993348;28;20476;-74
2022/01/13 09:42:01;;;;;;;28.77;17.43;;;1.60;99.90;;;;;;4993487;28;20550;-75
2022/01/13 09:44:29;;;;;;;36.03;19.03;;;1.60;99.90;;;;;;4993450;28;21002;-74
2022/01/13 09:46:56;;;;;;;33.20;18.90;;;1.60;99.90;;;;;;4993249;28;21020;-75
2022/01/13 09:49:23;;;;;;;25.93;17.03;;;1.60;99.90;;;;;;4992829;28;20534;-74
2022/01/13 09:51:50;;;;;;;28.10;17.63;;;1.60;99.90;;;;;;4992963;28;21013;-74
2022/01/13 09:54:20;;;;;;;26.83;16.73;;;1.70;99.90;;;;;;4993276;28;20551;-74
2022/01/13 09:56:47;;;;;;;28.23;16.90;;;1.70;99.90;;;;;;4993122;28;20495;-73
2022/01/13 09:59:14;;;;;;;27.70;17.57;;;1.80;99.90;;;;;;4992901;28;20458;-74
2022/01/13 10:01:42;;;;;;;37.57;19.73;;;1.80;99.90;;;;;;4992891;28;20573;-73
2022/01/13 10:04:09;;;;;;;29.50;18.37;;;1.90;99.90;;;;;;4992789;28;20538;-73
2022/01/13 10:06:42;;;;;;;34.33;17.70;;;1.90;99.90;;;;;;4992579;28;20478;-74
2022/01/13 10:09:09;;;;;;;32.83;16.40;;;2.00;99.90;;;;;;4992860;28;20454;-74
2022/01/13 10:11:40;;;;;;;35.17;18.20;;;2.10;99.90;;;;;;4992663;28;21373;-74
2022/01/13 10:14:14;;;;;;;27.30;16.30;;;2.10;99.90;;;;;;4992906;28;20462;-73
2022/01/13 10:16:46;;;;;;;26.87;16.67;;;2.20;99.90;;;;;;4992730;28;20786;-73
2022/01/13 10:19:34;;;;;;;27.13;16.87;;;2.20;99.90;;;;;;4991917;28;20458;-73
2022/01/13 10:22:04;;;;;;;29.37;16.73;;;2.30;99.90;;;;;;4989672;28;20545;-73
2022/01/13 10:24:33;;;;;;;25.67;16.37;;;2.30;99.90;;;;;;4992597;28;20534;-73
2022/01/13 10:27:05;;;;;;;26.30;15.53;;;2.40;99.90;;;;;;4992468;28;20534;-73
2022/01/13 10:29:40;;;;;;;24.40;15.80;;;2.50;99.90;;;;;;4992612;28;20475;-74
2022/01/13 10:32:08;;;;;;;27.40;15.40;;;2.60;99.90;;;;;;4992484;28;20505;-73
2022/01/13 10:34:37;;;;;;;24.37;13.63;;;2.60;99.90;;;;;;4992569;28;20837;-73
2022/01/13 10:37:11;;;;;;;21.73;14.07;;;2.70;99.90;;;;;;4992670;28;20490;-74
2022/01/13 10:39:51;;;;;;;23.17;15.30;;;2.90;99.90;;;;;;4992261;28;20988;-74
2022/01/13 10:45:29;;;;;;;18.57;12.67;;;3.10;99.90;;;;;;4992104;28;20541;-74
2022/01/13 10:47:58;;;;;;;21.17;13.73;;;3.20;99.90;;;;;;4992379;28;20458;-73
2022/01/13 10:50:28;;;;;;;21.13;14.40;;;3.30;99.90;;;;;;4992055;28;20541;-73
2022/01/13 10:53:02;;;;;;;20.50;11.33;;;3.40;99.90;;;;;;4992357;28;20586;-73
2022/01/13 10:55:31;;;;;;;19.47;12.93;;;3.50;99.90;;;;;;4991426;28;20469;-73
2022/01/13 10:57:59;;;;;;;20.10;12.87;;;3.60;99.90;;;;;;4991362;28;20533;-74
2022/01/13 11:00:28;;;;;;;23.70;15.93;;;3.70;99.90;;;;;;4990840;28;20454;-73
2022/01/13 11:03:16;;;;;;;22.80;12.67;;;3.80;99.90;;;;;;4991287;28;20801;-73
2022/01/13 11:05:47;;;;;;;19.33;12.67;;;4.00;99.90;;;;;;4986484;28;20467;-73
2022/01/13 11:08:25;;;;;;;16.73;10.60;;;4.30;99.90;;;;;;4989572;28;20487;-73
2022/01/13 11:10:54;;;;;;;16.83;10.57;;;4.50;99.90;;;;;;4989086;28;20551;-73
2022/01/13 11:13:24;;;;;;;16.73;10.70;;;4.60;99.90;;;;;;4989598;28;20534;-73
2022/01/13 11:15:55;;;;;;;17.60;12.00;;;4.70;99.90;;;;;;4989945;28;20501;-73
2022/01/13 11:18:24;;;;;;;15.07;10.83;;;4.80;99.90;;;;;;4990126;28;20462;-72
2022/01/13 11:20:51;;;;;;;18.70;12.67;;;4.90;99.90;;;;;;4990729;28;20566;-72
2022/01/13 11:23:19;;;;;;;22.23;12.97;;;5.00;99.90;;;;;;4990845;28;20527;-73
2022/01/13 11:25:48;;;;;;;19.90;13.60;;;5.10;99.90;;;;;;4991312;28;20534;-72
2022/01/13 11:28:15;;;;;;;21.80;12.70;;;5.20;99.90;;;;;;4990691;28;20494;-73
2022/01/13 11:30:45;;;;;;;18.03;11.23;;;5.30;99.90;;;;;;4992095;28;20463;-74
2022/01/13 11:33:13;;;;;;;15.13;11.30;;;5.50;99.90;;;;;;4994978;28;20487;-74
2022/01/13 11:35:45;;;;;;;20.77;12.10;;;5.70;99.90;;;;;;4995535;28;21022;-73
2022/01/13 11:38:13;;;;;;;17.70;11.27;;;5.80;99.90;;;;;;4995906;28;20468;-73
2022/01/13 11:40:43;;;;;;;15.90;10.73;;;5.90;99.90;;;;;;4995469;28;20474;-74
2022/01/13 11:43:30;;;;;;;17.17;10.40;;;5.90;99.90;;;;;;4995734;28;20447;-77
2022/01/13 11:46:12;;;;;;;15.30;10.33;;;5.80;99.90;;;;;;4995633;28;20551;-75
2022/01/13 11:48:42;;;;;;;16.33;11.10;;;5.90;99.90;;;;;;4995632;28;20946;-75
2022/01/13 11:51:16;;;;;;;14.13;10.97;;;6.00;99.90;;;;;;4995248;28;20478;-76
2022/01/13 11:53:55;;;;;;;15.90;11.43;;;6.10;99.90;;;;;;4995281;28;21093;-74
2022/01/13 11:56:24;;;;;;;16.70;11.07;;;6.20;99.90;;;;;;4995552;28;20434;-74
2022/01/13 11:58:52;;;;;;;17.00;11.23;;;6.30;99.90;;;;;;4995377;28;20545;-74
2022/01/13 12:01:22;;;;;;;14.47;9.83;;;6.30;99.90;;;;;;4995033;28;21066;-74
2022/01/13 12:03:51;;;;;;;19.90;11.30;;;6.30;99.90;;;;;;4995184;28;21026;-75
2022/01/13 12:06:41;;;;;;;16.70;10.63;;;6.40;99.90;;;;;;4995173;28;20447;-75
2022/01/13 12:09:08;;;;;;;13.83;10.10;;;6.40;99.90;;;;;;4994692;28;20546;-75
2022/01/13 12:11:46;;;;;;;16.63;10.70;;;6.50;99.90;;;;;;4995175;28;20561;-74
2022/01/13 12:14:41;;;;;;;16.40;10.10;;;6.50;99.90;;;;;;4994942;28;20482;-74
2022/01/13 12:17:17;;;;;;;12.63;9.57;;;6.50;99.90;;;;;;4985828;28;20478;-74
2022/01/13 12:19:47;;;;;;;11.80;9.80;;;6.60;99.90;;;;;;4994618;28;20837;-74
2022/01/13 12:22:20;;;;;;;13.93;10.17;;;6.50;99.90;;;;;;4995321;28;20471;-75
2022/01/13 12:24:53;;;;;;;13.40;9.63;;;6.70;99.90;;;;;;4994909;28;20978;-75
2022/01/13 12:27:22;;;;;;;19.60;11.27;;;6.80;99.90;;;;;;4994881;28;20486;-75
2022/01/13 12:29:51;;;;;;;14.87;10.20;;;7.10;99.90;;;;;;4994365;28;20547;-75
2022/01/13 12:32:36;;;;;;;12.53;9.87;;;7.40;99.90;;;;;;4994115;28;20578;-75
2022/01/13 12:35:06;;;;;;;14.20;10.40;;;7.60;99.90;;;;;;4993677;28;20939;-75
2022/01/13 12:37:36;;;;;;;15.30;10.37;;;7.80;99.90;;;;;;4993738;28;20451;-74
2022/01/13 12:40:15;;;;;;;14.57;10.20;;;8.00;99.90;;;;;;4993404;28;20486;-75
2022/01/13 12:42:50;;;;;;;17.30;10.60;;;7.90;99.90;;;;;;4993345;28;20922;-75
2022/01/13 12:45:28;;;;;;;14.10;9.37;;;7.90;99.90;;;;;;4993623;28;20509;-75
2022/01/13 12:47:58;;;;;;;12.33;8.80;;;7.70;99.90;;;;;;4993464;28;20546;-75
2022/01/13 12:50:27;;;;;;;12.50;8.83;;;7.60;99.90;;;;;;4993043;28;20511;-75
2022/01/13 12:52:59;;;;;;;17.83;9.10;;;7.60;99.90;;;;;;4993457;28;20609;-75
2022/01/13 12:55:26;;;;;;;14.57;9.70;;;7.60;99.90;;;;;;4993259;28;20927;-75
2022/01/13 12:57:55;;;;;;;13.47;8.60;;;7.60;99.90;;;;;;4993313;28;20545;-75
2022/01/13 13:00:24;;;;;;;12.60;9.17;;;7.70;99.90;;;;;;4992800;28;20451;-75
2022/01/13 13:03:05;;;;;;;13.27;9.63;;;7.70;99.90;;;;;;4993129;28;20538;-75
2022/01/13 13:05:35;;;;;;;13.57;9.63;;;7.90;99.90;;;;;;4993350;28;20439;-75
2022/01/13 13:08:02;;;;;;;14.20;10.10;;;7.90;99.90;;;;;;4993228;28;20534;-75
2022/01/13 13:10:29;;;;;;;13.30;9.57;;;7.90;99.90;;;;;;4992925;28;20483;-75
2022/01/13 13:12:58;;;;;;;14.00;8.97;;;7.80;99.90;;;;;;4992919;28;20491;-75
2022/01/13 13:15:40;;;;;;;13.23;9.80;;;7.70;99.90;;;;;;4992888;28;20451;-75
2022/01/13 13:18:10;;;;;;;13.80;9.93;;;7.50;99.90;;;;;;4992796;28;20454;-75
2022/01/13 13:20:38;;;;;;;14.80;9.90;;;7.50;99.90;;;;;;4992568;28;20482;-75
2022/01/13 13:23:07;;;;;;;14.00;10.20;;;7.40;99.90;;;;;;4992734;28;20820;-75
2022/01/13 13:25:37;;;;;;;16.23;9.17;;;7.50;99.90;;;;;;4993323;28;20538;-75
2022/01/13 13:28:21;;;;;;;13.53;9.23;;;7.50;99.90;;;;;;4993035;28;20457;-74
2022/01/13 13:30:49;;;;;;;14.80;10.73;;;7.50;99.90;;;;;;4991343;28;20498;-78
2022/01/13 13:33:18;;;;;;;17.17;9.70;;;7.40;99.90;;;;;;4992877;28;20577;-74
2022/01/13 13:35:45;;;;;;;12.67;8.50;;;7.40;99.90;;;;;;4993621;28;20454;-74
2022/01/13 13:38:13;;;;;;;10.87;8.50;;;7.30;99.90;;;;;;4993502;28;20455;-76
2022/01/13 13:40:44;;;;;;;13.33;9.23;;;7.20;99.90;;;;;;4992911;28;20525;-76
2022/01/13 13:43:12;;;;;;;12.57;9.43;;;7.10;99.90;;;;;;4993540;28;20530;-75
2022/01/13 13:45:39;;;;;;;15.63;10.10;;;7.20;99.90;;;;;;4993413;28;20482;-75
2022/01/13 13:48:06;;;;;;;15.40;9.43;;;7.30;99.90;;;;;;4993421;28;20489;-75
2022/01/13 13:50:35;;;;;;;12.27;8.03;;;7.30;99.90;;;;;;4989522;28;20549;-75
2022/01/13 13:53:06;;;;;;;14.60;9.60;;;7.40;99.90;;;;;;4992178;28;21117;-75
2022/01/13 13:55:34;;;;;;;11.70;8.60;;;7.60;99.90;;;;;;4993316;28;20451;-75
2022/01/13 13:58:01;;;;;;;13.67;8.80;;;7.60;99.90;;;;;;4992973;28;21011;-66
2022/01/13 14:00:28;;;;;;;12.77;8.57;;;7.40;99.90;;;;;;4992644;28;20439;-66
2022/01/13 14:02:57;;;;;;;11.40;9.00;;;7.50;99.90;;;;;;4993079;28;20459;-66
2022/01/13 14:05:39;;;;;;;14.57;8.80;;;7.60;99.90;;;;;;4992659;28;20818;-66
2022/01/13 14:08:07;;;;;;;12.30;8.57;;;7.60;99.90;;;;;;4993514;28;20455;-66
2022/01/13 14:10:34;;;;;;;13.30;8.50;;;7.70;99.90;;;;;;4992723;28;20558;-66
2022/01/13 14:13:03;;;;;;;11.63;8.03;;;7.80;99.90;;;;;;4993392;28;20519;-66
2022/01/13 14:15:33;;;;;;;12.80;9.20;;;7.70;99.90;;;;;;4980605;28;20446;-66
2022/01/13 14:18:14;;;;;;;11.30;8.53;;;7.70;99.90;;;;;;4975673;28;20459;-67
2022/01/13 14:20:44;;;;;;;19.23;9.40;;;7.80;99.90;;;;;;4973360;28;20563;-74
2022/01/13 14:23:16;;;;;;;33.93;10.00;;;7.80;99.90;;;;;;4973355;28;20502;-75
2022/01/13 14:25:44;;;;;;;11.73;8.43;;;7.70;99.90;;;;;;4973352;28;20544;-75
2022/01/13 14:28:13;;;;;;;11.30;8.40;;;7.80;99.90;;;;;;4973244;28;20539;-75
2022/01/13 14:30:42;;;;;;;14.70;10.23;;;7.80;99.90;;;;;;4973154;28;20542;-75
2022/01/13 14:33:17;;;;;;;11.97;8.40;;;7.70;99.90;;;;;;4981067;28;20590;-75
2022/01/13 14:35:57;;;;;;;13.90;9.37;;;7.70;99.90;;;;;;4980894;28;20451;-74
2022/01/13 14:38:24;;;;;;;13.63;9.37;;;7.70;99.90;;;;;;4985334;28;20483;-75
2022/01/13 14:40:51;;;;;;;11.57;8.80;;;7.70;99.90;;;;;;4973076;28;20503;-76
2022/01/13 14:43:22;;;;;;;12.10;8.60;;;7.70;99.90;;;;;;4972942;28;20488;-76
2022/01/13 14:46:04;;;;;;;13.90;9.70;;;7.70;99.90;;;;;;4973159;28;20551;-75
2022/01/13 14:48:31;;;;;;;16.50;9.20;;;7.60;99.90;;;;;;4973018;28;20480;-76
2022/01/13 14:51:05;;;;;;;15.00;9.83;;;7.60;99.90;;;;;;4972455;28;20511;-75
2022/01/13 14:53:32;;;;;;;13.93;8.77;;;7.50;99.90;;;;;;4972568;28;20530;-75
2022/01/13 14:55:59;;;;;;;12.93;8.80;;;7.50;99.90;;;;;;4972762;28;20798;-75
2022/01/13 14:58:26;;;;;;;10.13;7.90;;;7.50;99.90;;;;;;4972803;28;20457;-75
2022/01/13 15:00:53;;;;;;;12.17;8.50;;;7.50;99.90;;;;;;4972712;28;20566;-75
2022/01/13 15:03:20;;;;;;;11.13;7.50;;;7.60;99.90;;;;;;4973107;28;20487;-75
2022/01/13 15:05:47;;;;;;;11.27;7.53;;;7.60;99.90;;;;;;4975964;28;20455;-75
2022/01/13 15:08:15;;;;;;;12.97;8.13;;;7.60;99.90;;;;;;4976251;28;20535;-75
2022/01/13 15:10:42;;;;;;;10.50;8.10;;;7.50;99.90;;;;;;4976470;28;20917;-75
2022/01/13 15:13:09;;;;;;;20.10;9.93;;;7.50;99.90;;;;;;4976260;28;21029;-75
2022/01/13 15:15:36;;;;;;;12.83;9.27;;;7.40;99.90;;;;;;4976411;28;21005;-75
2022/01/13 15:18:04;;;;;;;15.03;9.63;;;7.40;99.90;;;;;;4976581;28;20519;-73
2022/01/13 15:20:31;;;;;;;11.93;8.57;;;7.40;99.90;;;;;;4976200;28;20984;-74
2022/01/13 15:22:58;;;;;;;14.37;9.10;;;7.40;99.90;;;;;;4976302;28;20543;-73
2022/01/13 15:25:27;;;;;;;12.70;8.27;;;7.40;99.90;;;;;;4975901;28;20538;-74
2022/01/13 15:27:54;;;;;;;11.50;8.13;;;7.40;99.90;;;;;;4975173;28;20821;-73
2022/01/13 15:30:21;;;;;;;13.53;8.37;;;7.40;99.90;;;;;;4974527;28;20487;-74
2022/01/13 15:32:48;;;;;;;18.70;10.93;;;7.40;99.90;;;;;;4974692;28;20527;-74
2022/01/13 15:35:15;;;;;;;13.70;9.77;;;7.40;99.90;;;;;;4975077;28;20526;-73
2022/01/13 15:37:43;;;;;;;18.10;9.87;;;7.40;99.90;;;;;;4975594;28;20483;-73
2022/01/13 15:40:13;;;;;;;15.10;9.27;;;7.30;99.90;;;;;;4975188;28;20487;-73
2022/01/13 15:42:42;;;;;;;22.30;9.27;;;7.20;99.90;;;;;;4975393;28;20448;-73
2022/01/13 15:45:11;;;;;;;11.90;8.03;;;7.20;99.90;;;;;;4975957;28;20451;-73
2022/01/13 15:47:38;;;;;;;12.77;8.70;;;7.10;99.90;;;;;;4976005;28;20543;-73
2022/01/13 15:50:07;;;;;;;12.60;9.00;;;7.10;99.90;;;;;;4975546;28;20983;-73
2022/01/13 15:52:34;;;;;;;13.27;8.47;;;7.00;99.90;;;;;;4975882;28;20554;-73
2022/01/13 15:55:01;;;;;;;15.20;8.47;;;6.90;99.90;;;;;;4975850;28;20502;-73
2022/01/13 15:57:28;;;;;;;11.10;7.97;;;6.90;99.90;;;;;;4975794;28;20952;-73
2022/01/13 15:59:56;;;;;;;12.37;8.53;;;6.80;99.90;;;;;;4975599;28;20459;-73
2022/01/13 16:02:24;;;;;;;15.57;9.17;;;6.70;99.90;;;;;;4975660;28;20562;-73
2022/01/13 16:04:51;;;;;;;11.77;7.43;;;6.70;99.90;;;;;;4975786;28;20924;-74
2022/01/13 16:07:18;;;;;;;13.33;8.13;;;6.60;99.90;;;;;;4975509;28;20523;-74
2022/01/13 16:09:45;;;;;;;12.60;7.93;;;6.50;99.90;;;;;;4975447;28;20487;-74
2022/01/13 16:12:12;;;;;;;12.03;7.70;;;6.50;99.90;;;;;;4975875;28;21023;-74
2022/01/13 16:14:41;;;;;;;10.27;7.27;;;6.40;99.90;;;;;;4975269;28;20582;-74
2022/01/13 16:17:09;;;;;;;12.23;8.43;;;6.30;99.90;;;;;;4974764;28;20510;-73
2022/01/13 16:19:36;;;;;;;12.40;8.33;;;6.30;99.90;;;;;;4975250;28;20511;-73
2022/01/13 16:22:04;;;;;;;18.47;9.77;;;6.20;99.90;;;;;;4975223;28;20481;-74
2022/01/13 16:24:33;;;;;;;13.77;9.93;;;6.10;99.90;;;;;;4975438;28;20967;-71
2022/01/13 16:27:01;;;;;;;13.47;10.00;;;6.10;99.90;;;;;;4975267;28;21039;-72
2022/01/13 16:29:47;;;;;;;22.53;10.37;;;6.00;99.90;;;;;;4974715;28;20858;-72
2022/01/13 16:32:16;;;;;;;13.27;10.57;;;6.00;99.90;;;;;;4975228;28;20486;-73
2022/01/13 16:34:43;;;;;;;19.40;11.60;;;5.90;99.90;;;;;;4975381;28;20499;-74
2022/01/13 16:37:09;;;;;;;18.90;12.07;;;5.90;99.90;;;;;;4975403;28;20462;-74
2022/01/13 16:39:36;;;;;;;17.67;11.87;;;5.80;99.90;;;;;;4974988;28;20500;-74
2022/01/13 16:42:04;;;;;;;17.87;11.63;;;5.70;99.90;;;;;;4975094;28;20574;-74
2022/01/13 16:44:31;;;;;;;16.40;10.30;;;5.70;99.90;;;;;;4975456;28;20539;-75
2022/01/13 16:46:58;;;;;;;15.60;10.10;;;5.70;99.90;;;;;;4975596;28;20456;-74
2022/01/13 16:49:26;;;;;;;17.70;10.17;;;5.60;99.90;;;;;;4975134;28;20952;-75
2022/01/13 16:51:53;;;;;;;16.90;10.03;;;5.60;99.90;;;;;;4975013;28;20915;-75
2022/01/13 16:54:21;;;;;;;12.03;9.07;;;5.60;99.90;;;;;;4974772;28;21007;-74
2022/01/13 16:56:48;;;;;;;13.90;9.97;;;5.50;99.90;;;;;;4976548;28;20473;-75
2022/01/13 16:59:15;;;;;;;13.70;9.70;;;5.50;99.90;;;;;;4981496;28;20890;-74
2022/01/13 17:01:42;;;;;;;19.43;12.00;;;5.40;99.90;;;;;;4993680;28;20510;-74
2022/01/13 17:04:09;;;;;;;22.70;13.27;;;5.30;99.90;;;;;;4994124;28;20483;-74
2022/01/13 17:06:37;;;;;;;19.07;12.93;;;5.30;99.90;;;;;;4994044;28;20491;-74
2022/01/13 17:09:04;;;;;;;20.43;12.43;;;5.30;99.90;;;;;;4993753;28;21188;-75
2022/01/13 17:11:31;;;;;;;22.27;14.73;;;5.20;99.90;;;;;;4994077;28;20526;-75
2022/01/13 17:13:58;;;;;;;16.63;11.70;;;5.20;99.90;;;;;;4994182;28;20586;-75
2022/01/13 17:16:25;;;;;;;17.83;12.97;;;5.10;99.90;;;;;;4980271;28;20559;-73
2022/01/13 17:18:52;;;;;;;22.50;15.03;;;5.10;99.90;;;;;;4973642;28;20524;-75
2022/01/13 17:21:19;;;;;;;23.33;15.20;;;5.00;99.90;;;;;;4974308;28;20611;-73
2022/01/13 17:23:48;;;;;;;23.50;15.43;;;5.00;99.90;;;;;;4974320;28;20460;-74
2022/01/13 17:26:16;;;;;;;25.93;16.20;;;4.90;99.90;;;;;;4974423;28;20539;-74
2022/01/13 17:28:43;;;;;;;27.03;15.53;;;4.90;99.90;;;;;;4974222;28;20542;-74
2022/01/13 17:31:10;;;;;;;27.27;17.87;;;4.90;99.90;;;;;;4991693;28;20525;-74
2022/01/13 17:33:37;;;;;;;22.67;15.37;;;4.80;99.90;;;;;;4991814;28;20978;-75
2022/01/13 17:36:04;;;;;;;24.23;16.50;;;4.80;99.90;;;;;;4990035;28;20830;-75
2022/01/13 17:38:31;;;;;;;31.60;18.00;;;4.70;99.90;;;;;;4989820;28;20562;-74
2022/01/13 17:41:00;;;;;;;29.17;18.20;;;4.60;99.90;;;;;;4989119;28;20506;-75
2022/01/13 17:43:28;;;;;;;31.17;19.10;;;4.50;99.90;;;;;;4990118;28;20538;-74
2022/01/13 17:45:58;;;;;;;38.33;21.43;;;4.50;99.90;;;;;;4977387;28;20499;-73
2022/01/13 17:48:25;;;;;;;32.63;21.57;;;4.50;99.90;;;;;;4986194;28;21018;-74
2022/01/13 17:50:52;;;;;;;36.17;22.60;;;4.40;99.90;;;;;;4988777;28;20538;-73
2022/01/13 17:53:19;;;;;;;38.70;22.17;;;4.40;99.90;;;;;;4989981;28;20530;-74
2022/01/13 17:55:46;;;;;;;35.30;20.63;;;4.40;99.90;;;;;;4989826;28;21015;-74
2022/01/13 17:58:16;;;;;;;32.73;19.90;;;4.30;99.90;;;;;;4989635;28;20502;-71